Time;durP1;ratioP1;P1;durP2;ratioP2;P2;SDS_P1;SDS_P2;PMS_P1;PMS_P2;Temp;Humidity;BMP_temperature;BMP_pressure;BME280_temperature;BME280_humidity;BME280_pressure;Samples;Min_cycle;Max_cycle;Signal;HPM_P1;HPM_P2
2021/06/07 00:01:39;;;;;;;5.03;1.70;;;;;;;17.92;100.00;100766.50;4995844;28;20449;-75
2021/06/07 00:04:07;;;;;;;2.57;0.90;;;;;;;17.88;100.00;100768.50;4980987;28;20544;-75
2021/06/07 00:06:34;;;;;;;0.40;0.20;;;;;;;17.90;100.00;100769.28;4995754;28;20445;-75
2021/06/07 00:09:04;;;;;;;0.83;0.83;;;;;;;17.91;100.00;100765.63;4976967;28;20510;-74
2021/06/07 00:11:31;;;;;;;0.40;0.20;;;;;;;17.90;100.00;100771.97;4988586;28;20446;-75
2021/06/07 00:14:01;;;;;;;1.73;0.87;;;;;;;17.87;100.00;100765.88;4995196;28;20457;-75
2021/06/07 00:16:29;;;;;;;1.33;1.23;;;;;;;17.92;100.00;100764.69;4995175;28;20432;-75
2021/06/07 00:18:57;;;;;;;4.40;2.20;;;;;;;17.91;100.00;100775.53;4993693;28;20505;-75
2021/06/07 00:21:27;;;;;;;0.40;0.20;;;;;;;17.96;100.00;100766.28;4994228;28;20453;-75
2021/06/07 00:23:56;;;;;;;3.07;1.50;;;;;;;18.00;100.00;100769.69;4981855;28;20450;-75
2021/06/07 00:26:23;;;;;;;0.40;0.20;;;;;;;18.22;100.00;100772.97;4991286;28;20432;-75
2021/06/07 00:28:50;;;;;;;0.40;0.30;;;;;;;18.40;100.00;100770.28;5002964;28;20457;-74
2021/06/07 00:31:16;;;;;;;2.27;1.93;;;;;;;18.61;100.00;100769.13;4984297;28;20827;-75
2021/06/07 00:33:43;;;;;;;0.93;0.87;;;;;;;18.70;100.00;100773.19;4983221;28;20446;-75
2021/06/07 00:36:11;;;;;;;1.33;1.33;;;;;;;18.74;100.00;100770.22;4992898;28;20943;-75
2021/06/07 00:38:39;;;;;;;1.27;1.17;;;;;;;18.70;100.00;100775.88;4984152;28;20567;-75
2021/06/07 00:41:08;;;;;;;0.60;0.60;;;;;;;18.77;100.00;100774.56;4994023;28;20462;-75
2021/06/07 00:43:35;;;;;;;0.40;0.20;;;;;;;18.69;100.00;100775.00;4984156;28;20462;-75
2021/06/07 00:46:03;;;;;;;0.40;0.20;;;;;;;18.60;100.00;100775.47;4988395;28;20455;-75
2021/06/07 00:48:30;;;;;;;3.70;1.20;;;;;;;18.60;100.00;100770.94;4984401;28;20481;-75
2021/06/07 00:51:02;;;;;;;0.40;0.20;;;;;;;18.30;100.00;100784.22;4992805;28;20462;-75
2021/06/07 00:53:29;;;;;;;0.50;0.40;;;;;;;18.57;100.00;100781.03;4983783;28;20512;-75
2021/06/07 00:55:59;;;;;;;2.87;2.30;;;;;;;18.40;100.00;100776.53;4986801;28;20456;-75
2021/06/07 00:58:32;;;;;;;0.40;0.27;;;;;;;18.34;100.00;100780.41;4974866;28;20548;-75
2021/06/07 01:01:00;;;;;;;0.60;0.60;;;;;;;18.69;100.00;100774.13;4994590;28;20420;-75
2021/06/07 01:03:28;;;;;;;0.40;0.20;;;;;;;18.65;100.00;100768.06;4993373;28;20863;-75
2021/06/07 01:05:56;;;;;;;7.63;2.50;;;;;;;18.81;100.00;100770.78;4980625;28;20950;-75
2021/06/07 01:08:24;;;;;;;0.40;0.30;;;;;;;18.71;100.00;100773.09;4994432;28;20464;-76
2021/06/07 01:10:52;;;;;;;1.03;1.03;;;;;;;18.54;100.00;100771.28;4982303;28;20449;-75
2021/06/07 01:13:20;;;;;;;0.40;0.33;;;;;;;18.62;100.00;100766.34;4995066;28;20446;-75
2021/06/07 01:15:50;;;;;;;1.37;0.67;;;;;;;18.51;100.00;100765.22;4985537;28;20539;-75
2021/06/07 01:18:20;;;;;;;0.50;0.40;;;;;;;18.62;100.00;100763.66;4998259;28;20500;-75
2021/06/07 01:20:49;;;;;;;0.47;0.37;;;;;;;18.61;100.00;100764.59;4990471;28;20476;-74
2021/06/07 01:23:15;;;;;;;0.50;0.40;;;;;;;18.43;100.00;100772.81;4990408;28;20453;-75
2021/06/07 01:25:43;;;;;;;0.83;0.83;;;;;;;18.56;100.00;100769.38;4997019;28;20428;-75
2021/06/07 01:28:13;;;;;;;1.47;1.37;;;;;;;18.44;100.00;100761.97;4983045;28;20485;-74
2021/06/07 01:30:42;;;;;;;1.17;1.07;;;;;;;18.41;100.00;100763.94;4995010;28;20453;-75
2021/06/07 01:33:12;;;;;;;0.40;0.30;;;;;;;18.37;100.00;100757.88;4990930;28;20459;-75
2021/06/07 01:35:39;;;;;;;2.40;2.20;;;;;;;18.22;100.00;100755.97;4987159;28;20457;-75
2021/06/07 01:38:08;;;;;;;0.43;0.30;;;;;;;18.14;100.00;100755.50;4988850;28;20482;-75
2021/06/07 01:40:38;;;;;;;0.40;0.20;;;;;;;18.31;100.00;100750.97;4983958;28;20480;-75
2021/06/07 01:43:05;;;;;;;0.40;0.30;;;;;;;18.23;100.00;100749.66;4994096;28;20839;-75
2021/06/07 01:45:37;;;;;;;0.40;0.30;;;;;;;18.28;100.00;100750.28;4981689;28;20450;-76
2021/06/07 01:48:06;;;;;;;9.73;2.50;;;;;;;18.33;100.00;100753.56;4992880;28;21022;-75
2021/06/07 01:50:35;;;;;;;0.40;0.30;;;;;;;18.36;100.00;100745.34;4993512;28;20500;-75
2021/06/07 01:53:03;;;;;;;0.40;0.20;;;;;;;18.38;100.00;100748.84;5008353;28;20469;-75
2021/06/07 01:55:40;;;;;;;0.50;0.47;;;;;;;18.33;100.00;100741.00;4992362;28;20841;-75
2021/06/07 01:58:09;;;;;;;2.73;2.63;;;;;;;18.23;100.00;100746.97;4992213;28;20577;-75
2021/06/07 02:00:47;;;;;;;0.57;0.57;;;;;;;18.22;100.00;100754.13;4979650;28;20490;-75
2021/06/07 02:03:16;;;;;;;1.63;1.63;;;;;;;18.32;100.00;100749.16;4991907;28;20457;-75
2021/06/07 02:05:46;;;;;;;1.37;1.27;;;;;;;18.19;100.00;100743.53;4978368;28;20449;-75
2021/06/07 02:08:15;;;;;;;0.40;0.20;;;;;;;18.39;100.00;100741.63;4981502;28;21042;-75
2021/06/07 02:10:45;;;;;;;0.70;0.70;;;;;;;18.40;100.00;100740.69;4991017;28;20500;-75
2021/06/07 02:13:13;;;;;;;0.60;0.60;;;;;;;18.41;100.00;100743.28;4993187;28;20446;-75
2021/06/07 02:15:41;;;;;;;1.67;1.67;;;;;;;18.55;100.00;100746.09;4981217;28;20480;-75
2021/06/07 02:18:10;;;;;;;3.20;3.03;;;;;;;18.48;100.00;100741.97;4984462;28;20478;-75
2021/06/07 02:20:38;;;;;;;0.40;0.20;;;;;;;18.41;100.00;100745.97;4996988;28;20457;-74
2021/06/07 02:23:05;;;;;;;0.40;0.20;;;;;;;18.37;100.00;100752.47;4984076;28;20446;-75
2021/06/07 02:25:32;;;;;;;0.53;0.50;;;;;;;18.33;100.00;100748.19;5008503;28;20457;-75
2021/06/07 02:27:59;;;;;;;0.40;0.30;;;;;;;18.22;100.00;100742.50;4985749;28;20899;-75
2021/06/07 02:30:29;;;;;;;1.27;1.07;;;;;;;18.24;100.00;100741.50;4989497;28;20537;-75
2021/06/07 02:32:59;;;;;;;0.60;0.60;;;;;;;18.28;100.00;100744.88;5000444;28;20474;-75
2021/06/07 02:35:27;;;;;;;0.40;0.20;;;;;;;18.35;100.00;100743.59;4987649;28;20507;-74
2021/06/07 02:37:55;;;;;;;1.40;1.30;;;;;;;18.35;100.00;100746.28;4992840;28;20488;-75
2021/06/07 02:40:26;;;;;;;0.50;0.50;;;;;;;18.40;100.00;100752.31;4987489;28;20489;-75
2021/06/07 02:42:52;;;;;;;0.40;0.20;;;;;;;18.37;100.00;100751.63;4996037;28;20943;-75
2021/06/07 02:45:20;;;;;;;0.70;0.70;;;;;;;18.33;100.00;100742.81;4995788;28;20461;-75
2021/06/07 02:47:50;;;;;;;0.50;0.40;;;;;;;18.32;100.00;100743.75;4978370;28;20512;-75
2021/06/07 02:50:25;;;;;;;1.80;1.70;;;;;;;18.40;100.00;100743.38;4987464;28;20449;-75
2021/06/07 02:52:52;;;;;;;1.17;1.17;;;;;;;18.40;100.00;100743.38;4990170;28;20458;-75
2021/06/07 02:55:21;;;;;;;1.80;1.57;;;;;;;18.39;100.00;100738.94;4987041;28;20516;-75
2021/06/07 02:57:49;;;;;;;1.50;1.47;;;;;;;18.18;100.00;100752.56;4981233;28;20849;-76
2021/06/07 03:00:20;;;;;;;1.23;0.87;;;;;;;18.35;100.00;100743.59;4995226;28;21077;-75
2021/06/07 03:02:47;;;;;;;0.40;0.20;;;;;;;18.37;100.00;100746.22;4989315;28;20454;-75
2021/06/07 03:05:14;;;;;;;0.40;0.20;;;;;;;18.39;100.00;100739.81;4989310;28;20453;-75
2021/06/07 03:07:41;;;;;;;0.40;0.30;;;;;;;18.40;100.00;100749.63;4987543;28;20466;-75
2021/06/07 03:10:09;;;;;;;0.40;0.20;;;;;;;18.43;100.00;100745.88;4976254;28;20474;-75
2021/06/07 03:12:37;;;;;;;0.40;0.30;;;;;;;18.42;100.00;100745.03;4995173;28;20485;-75
2021/06/07 03:15:05;;;;;;;0.60;0.60;;;;;;;18.35;100.00;100751.66;4982025;28;20490;-75
2021/06/07 03:17:33;;;;;;;5.13;0.83;;;;;;;18.16;100.00;100756.28;4993786;28;20458;-75
2021/06/07 03:19:59;;;;;;;0.50;0.50;;;;;;;18.17;100.00;100744.59;4981869;28;20506;-75
2021/06/07 03:22:26;;;;;;;4.10;0.93;;;;;;;18.35;100.00;100748.97;4995761;28;20868;-75
2021/06/07 03:24:53;;;;;;;4.00;1.30;;;;;;;18.32;100.00;100749.16;4998279;28;20454;-75
2021/06/07 03:27:20;;;;;;;1.13;1.13;;;;;;;18.28;100.00;100750.28;4995847;28;20454;-75
2021/06/07 03:29:47;;;;;;;0.80;0.80;;;;;;;18.22;100.00;100746.06;5002022;28;20478;-75
2021/06/07 03:32:14;;;;;;;0.40;0.20;;;;;;;18.43;100.00;100752.13;4990487;28;20461;-75
2021/06/07 03:34:41;;;;;;;0.40;0.30;;;;;;;18.04;100.00;100745.22;4991325;28;20484;-75
2021/06/07 03:37:08;;;;;;;1.43;1.43;;;;;;;17.93;100.00;100752.09;4984926;28;20474;-75
2021/06/07 03:39:34;;;;;;;0.40;0.20;;;;;;;18.25;100.00;100753.13;4990374;28;20492;-75
2021/06/07 03:42:02;;;;;;;0.40;0.20;;;;;;;18.25;100.00;100748.63;4994653;28;20516;-75
2021/06/07 03:44:28;;;;;;;4.10;1.80;;;;;;;18.26;100.00;100744.09;4980114;28;20457;-75
2021/06/07 03:46:55;;;;;;;0.40;0.30;;;;;;;18.35;100.00;100754.34;4995376;28;20446;-75
2021/06/07 03:49:22;;;;;;;8.23;2.30;;;;;;;18.30;100.00;100742.97;4982485;28;20527;-74
2021/06/07 03:51:48;;;;;;;3.53;1.37;;;;;;;18.15;100.00;100747.34;4993002;28;20454;-75
2021/06/07 03:54:15;;;;;;;0.40;0.30;;;;;;;18.19;100.00;100743.53;4981280;28;20485;-75
2021/06/07 03:56:42;;;;;;;0.40;0.20;;;;;;;18.21;100.00;100743.47;4983902;28;20458;-75
2021/06/07 03:59:11;;;;;;;0.40;0.40;;;;;;;18.31;100.00;100736.66;4992736;28;20576;-75
2021/06/07 04:01:38;;;;;;;0.40;0.20;;;;;;;18.24;100.00;100744.19;4982088;28;20458;-75
2021/06/07 04:04:05;;;;;;;2.03;1.80;;;;;;;18.20;100.00;100752.47;4992178;28;20461;-75
2021/06/07 04:06:32;;;;;;;1.17;1.17;;;;;;;18.28;100.00;100748.44;4982949;28;20451;-75
2021/06/07 04:09:01;;;;;;;0.40;0.30;;;;;;;18.42;100.00;100736.94;4992877;28;20986;-75
2021/06/07 04:11:28;;;;;;;0.40;0.20;;;;;;;18.10;100.00;100741.34;4994645;28;20464;-75
2021/06/07 04:13:55;;;;;;;1.70;1.17;;;;;;;18.06;100.00;100732.56;4988604;28;21014;-75
2021/06/07 04:16:22;;;;;;;0.40;0.20;;;;;;;18.17;100.00;100736.50;4987821;28;20466;-75
2021/06/07 04:18:49;;;;;;;0.53;0.40;;;;;;;18.35;100.00;100748.97;4988319;28;20474;-75
2021/06/07 04:21:15;;;;;;;2.20;1.20;;;;;;;18.23;100.00;100742.44;4987345;28;20450;-75
2021/06/07 04:23:42;;;;;;;0.40;0.30;;;;;;;18.36;100.00;100750.72;4988557;28;20968;-75
2021/06/07 04:26:08;;;;;;;1.73;1.07;;;;;;;18.45;100.00;100741.28;4986920;28;20453;-75
2021/06/07 04:28:38;;;;;;;0.50;0.40;;;;;;;18.38;100.00;100742.59;4980656;28;20469;-75
2021/06/07 04:31:05;;;;;;;0.40;0.30;;;;;;;18.29;100.00;100744.81;4993260;28;20453;-77
2021/06/07 04:33:31;;;;;;;0.40;0.30;;;;;;;18.53;100.00;100742.63;4979636;28;20456;-76
2021/06/07 04:35:58;;;;;;;4.73;0.63;;;;;;;18.59;100.00;100741.41;4992948;28;20445;-75
2021/06/07 04:38:25;;;;;;;0.80;0.80;;;;;;;18.30;100.00;100746.53;4974196;28;20893;-75
2021/06/07 04:40:51;;;;;;;3.50;1.60;;;;;;;18.48;100.00;100741.13;4987950;28;20990;-75
2021/06/07 04:43:18;;;;;;;0.40;0.20;;;;;;;18.50;100.00;100733.81;4986232;28;20513;-75
2021/06/07 04:45:46;;;;;;;1.53;0.93;;;;;;;18.24;100.00;100751.41;5001902;28;20454;-75
2021/06/07 04:48:13;;;;;;;0.63;0.60;;;;;;;18.05;100.00;100746.97;4974229;28;20852;-75
2021/06/07 04:50:40;;;;;;;0.40;0.30;;;;;;;18.25;100.00;100743.22;4987488;28;20465;-75
2021/06/07 04:53:10;;;;;;;0.40;0.37;;;;;;;18.21;100.00;100738.06;4985819;28;20470;-75
2021/06/07 04:55:38;;;;;;;0.90;0.90;;;;;;;18.33;100.00;100745.50;4985459;28;20846;-75
2021/06/07 04:58:07;;;;;;;0.80;0.50;;;;;;;18.48;100.00;100743.81;4982600;28;20457;-75
2021/06/07 05:00:36;;;;;;;2.30;1.03;;;;;;;18.51;100.00;100743.66;4991749;28;20532;-75
2021/06/07 05:03:03;;;;;;;0.40;0.20;;;;;;;18.44;100.00;100743.09;4991590;28;20898;-75
2021/06/07 05:05:32;;;;;;;3.07;1.23;;;;;;;18.43;100.00;100744.06;4979817;28;20453;-75
2021/06/07 05:07:59;;;;;;;0.63;0.63;;;;;;;18.52;100.00;100748.09;5014518;23;20581;-82
2021/06/07 05:10:26;;;;;;;0.77;0.77;;;;;;;18.43;100.00;100743.19;5054008;28;20446;-82
2021/06/07 05:12:53;;;;;;;0.40;0.20;;;;;;;18.11;100.00;100761.94;5027535;28;20443;-82
2021/06/07 05:15:19;;;;;;;0.60;0.60;;;;;;;18.20;100.00;100756.03;5032820;28;20458;-82
2021/06/07 05:17:46;;;;;;;0.40;0.20;;;;;;;18.47;100.00;100744.75;5051415;28;20506;-82
2021/06/07 05:20:19;;;;;;;0.40;0.33;;;;;;;18.26;100.00;100747.66;5035591;28;20491;-82
2021/06/07 05:22:47;;;;;;;3.03;2.83;;;;;;;18.55;100.00;100742.53;5034738;28;20468;-82
2021/06/07 05:25:15;;;;;;;1.17;1.17;;;;;;;18.17;100.00;100748.13;5036497;28;20570;-82
2021/06/07 05:27:42;;;;;;;0.40;0.23;;;;;;;18.39;100.00;100755.97;5024783;28;20447;-82
2021/06/07 05:30:10;;;;;;;0.50;0.50;;;;;;;18.63;100.00;100753.75;5028911;28;20423;-82
2021/06/07 05:32:37;;;;;;;0.40;0.20;;;;;;;18.28;100.00;100759.22;5027406;28;20894;-82
2021/06/07 05:35:09;;;;;;;0.40;0.20;;;;;;;18.30;100.00;100760.00;5036616;28;20454;-82
2021/06/07 05:37:36;;;;;;;0.40;0.20;;;;;;;18.38;100.00;100758.72;5050685;28;20520;-82
2021/06/07 05:40:05;;;;;;;0.40;0.20;;;;;;;18.14;100.00;100761.75;5033542;28;20534;-82
2021/06/07 05:42:31;;;;;;;0.40;0.20;;;;;;;18.16;100.00;100759.00;5035517;28;20518;-82
2021/06/07 05:44:58;;;;;;;0.40;0.20;;;;;;;18.23;100.00;100757.72;5035085;28;20492;-82
2021/06/07 05:47:25;;;;;;;0.40;0.30;;;;;;;18.01;100.00;100760.66;5036314;28;20453;-82
2021/06/07 05:49:51;;;;;;;0.40;0.20;;;;;;;17.99;100.00;100754.50;5036040;28;20505;-82
2021/06/07 05:52:18;;;;;;;0.40;0.20;;;;;;;17.97;100.00;100740.25;5039556;28;20471;-82
2021/06/07 05:54:45;;;;;;;0.40;0.20;;;;;;;18.03;100.00;100766.81;5038078;28;20451;-82
2021/06/07 05:57:11;;;;;;;0.40;0.30;;;;;;;18.02;100.00;100774.03;5042331;28;20453;-82
2021/06/07 05:59:38;;;;;;;0.40;0.20;;;;;;;17.99;100.00;100767.94;5061879;28;20490;-83
2021/06/07 06:02:06;;;;;;;0.40;0.20;;;;;;;18.14;100.00;100766.28;5040730;28;20592;-83
2021/06/07 06:04:34;;;;;;;0.60;0.60;;;;;;;18.33;100.00;100769.72;5052695;28;20447;-82
2021/06/07 06:07:03;;;;;;;0.40;0.20;;;;;;;17.90;100.00;100744.19;5054252;28;20470;-83
2021/06/07 06:09:30;;;;;;;0.40;0.20;;;;;;;18.06;100.00;100770.22;5053369;28;20443;-83
2021/06/07 06:11:57;;;;;;;0.40;0.20;;;;;;;18.31;100.00;100769.81;5057819;28;20495;-83
2021/06/07 06:14:26;;;;;;;0.40;0.20;;;;;;;18.14;100.00;100767.16;5047506;28;20947;-82
2021/06/07 06:16:53;;;;;;;0.67;0.67;;;;;;;18.50;100.00;100763.44;5042027;28;20473;-82
2021/06/07 06:19:20;;;;;;;0.40;0.20;;;;;;;18.21;100.00;100768.53;5058916;28;20451;-82
2021/06/07 06:21:51;;;;;;;2.57;1.70;;;;;;;18.14;100.00;100785.97;5026382;28;20442;-82
2021/06/07 06:24:18;;;;;;;1.50;1.23;;;;;;;17.88;100.00;100781.94;5040952;28;20501;-81
2021/06/07 06:26:45;;;;;;;0.40;0.30;;;;;;;18.19;100.00;100785.72;5045593;28;20426;-82
2021/06/07 06:29:14;;;;;;;0.40;0.20;;;;;;;17.88;100.00;100783.75;5046476;28;20458;-82
2021/06/07 06:31:40;;;;;;;0.40;0.20;;;;;;;17.84;100.00;100780.34;5030942;28;20498;-83
2021/06/07 06:34:07;;;;;;;0.40;0.20;;;;;;;17.71;100.00;100760.41;5044261;28;20452;-82
2021/06/07 06:36:35;;;;;;;0.50;0.30;;;;;;;17.89;100.00;100778.28;5062464;28;20498;-83
2021/06/07 06:39:04;;;;;;;0.40;0.20;;;;;;;17.82;100.00;100779.56;5063470;28;20454;-83
2021/06/07 06:41:31;;;;;;;0.40;0.20;;;;;;;17.95;100.00;100772.59;5043761;28;20503;-82
2021/06/07 06:43:57;;;;;;;0.40;0.30;;;;;;;17.88;100.00;100779.25;5058062;28;20442;-82
2021/06/07 06:46:25;;;;;;;0.40;0.20;;;;;;;18.11;100.00;100783.47;5038371;28;20451;-82
2021/06/07 06:48:53;;;;;;;0.40;0.40;;;;;;;18.15;100.00;100793.09;5037622;28;20994;-82
2021/06/07 06:51:20;;;;;;;3.07;0.80;;;;;;;18.04;100.00;100782.88;5015256;28;20819;-83
2021/06/07 06:53:46;;;;;;;1.00;0.67;;;;;;;17.93;100.00;100790.63;5045427;28;21001;-82
2021/06/07 06:56:13;;;;;;;0.70;0.70;;;;;;;18.13;100.00;100788.75;5029010;28;20480;-82
2021/06/07 06:58:39;;;;;;;1.67;1.47;;;;;;;17.94;100.00;100791.50;5029741;28;20510;-82
2021/06/07 07:01:08;;;;;;;0.40;0.20;;;;;;;18.02;100.00;100790.16;5035427;28;20549;-82
2021/06/07 07:03:35;;;;;;;1.33;0.40;;;;;;;17.85;100.00;100794.69;5036141;28;20470;-82
2021/06/07 07:06:02;;;;;;;0.40;0.30;;;;;;;18.02;100.00;100795.56;5037039;28;20515;-82
2021/06/07 07:08:29;;;;;;;0.40;0.30;;;;;;;17.95;100.00;100786.03;5036407;28;20467;-82
2021/06/07 07:10:56;;;;;;;0.40;0.30;;;;;;;17.85;100.00;100795.53;5036858;28;20446;-82
2021/06/07 07:13:23;;;;;;;0.40;0.20;;;;;;;17.62;100.00;100771.59;5036038;28;20856;-82
2021/06/07 07:15:50;;;;;;;0.40;0.20;;;;;;;17.84;100.00;100806.38;5038636;28;20459;-82
2021/06/07 07:18:17;;;;;;;0.40;0.27;;;;;;;17.86;100.00;100793.72;5036467;28;20630;-82
2021/06/07 07:20:44;;;;;;;0.40;0.30;;;;;;;17.94;100.00;100800.44;5039430;28;20565;-82
2021/06/07 07:23:12;;;;;;;0.40;0.20;;;;;;;17.94;100.00;100783.44;5036189;28;20530;-82
2021/06/07 07:25:40;;;;;;;0.40;0.20;;;;;;;17.85;100.00;100798.25;5036417;28;20460;-81
2021/06/07 07:28:10;;;;;;;0.60;0.60;;;;;;;17.98;100.00;100799.34;5024127;28;20452;-83
2021/06/07 07:30:38;;;;;;;0.40;0.20;;;;;;;17.81;100.00;100771.56;5026800;28;20448;-83
2021/06/07 07:33:08;;;;;;;0.50;0.40;;;;;;;18.16;100.00;100805.59;5049601;28;20951;-81
2021/06/07 07:35:35;;;;;;;0.40;0.20;;;;;;;18.21;100.00;100803.53;5038013;28;20447;-82
2021/06/07 07:38:03;;;;;;;0.40;0.20;;;;;;;18.32;100.00;100802.97;5035548;28;20509;-81
2021/06/07 07:40:35;;;;;;;0.50;0.50;;;;;;;18.53;100.00;100807.25;5036432;28;20494;-82
2021/06/07 07:43:01;;;;;;;0.50;0.50;;;;;;;18.53;100.00;100801.00;5038675;28;20488;-81
2021/06/07 07:45:29;;;;;;;0.40;0.20;;;;;;;18.28;100.00;100807.66;5035483;28;20427;-81
2021/06/07 07:47:59;;;;;;;0.40;0.20;;;;;;;18.29;100.00;100813.91;5036138;28;20447;-82
2021/06/07 07:50:28;;;;;;;0.40;0.20;;;;;;;18.10;100.00;100805.94;5038467;28;20806;-81
2021/06/07 07:52:55;;;;;;;0.40;0.20;;;;;;;18.14;100.00;100802.13;5039998;28;20476;-81
2021/06/07 07:55:25;;;;;;;0.40;0.20;;;;;;;18.16;100.00;100812.81;5035260;28;20455;-81
2021/06/07 07:57:53;;;;;;;0.40;0.20;;;;;;;18.17;100.00;100818.09;5023199;28;20459;-81
2021/06/07 08:00:24;;;;;;;0.40;0.27;;;;;;;18.14;100.00;100810.19;5035415;28;20491;-82
2021/06/07 08:02:51;;;;;;;0.40;0.20;;;;;;;17.83;100.00;100816.28;5016736;28;20543;-81
2021/06/07 08:05:18;;;;;;;0.40;0.20;;;;;;;17.81;100.00;100811.88;5016916;28;20487;-81
2021/06/07 08:07:45;;;;;;;1.83;1.80;;;;;;;17.94;100.00;100813.03;5037582;28;20467;-81
2021/06/07 08:10:12;;;;;;;0.40;0.20;;;;;;;17.97;100.00;100811.06;5039661;28;20449;-82
2021/06/07 08:12:41;;;;;;;0.40;0.20;;;;;;;17.89;100.00;100818.63;5034721;28;20447;-81
2021/06/07 08:15:09;;;;;;;0.50;0.50;;;;;;;17.73;100.00;100818.53;5039384;28;20426;-81
2021/06/07 08:17:36;;;;;;;0.40;0.20;;;;;;;17.94;100.00;100815.72;5038646;28;20506;-81
2021/06/07 08:20:14;;;;;;;0.40;0.20;;;;;;;18.00;100.00;100818.97;5034131;28;20451;-81
2021/06/07 08:22:42;;;;;;;0.67;0.67;;;;;;;17.81;100.00;100799.31;5035071;28;20486;-81
2021/06/07 08:25:09;;;;;;;0.40;0.20;;;;;;;17.85;100.00;100809.00;5035043;28;20829;-81
2021/06/07 08:27:36;;;;;;;0.70;0.70;;;;;;;17.91;100.00;100813.19;5025277;28;20933;-81
2021/06/07 08:30:05;;;;;;;0.40;0.20;;;;;;;17.75;100.00;100813.09;5014457;28;20457;-81
2021/06/07 08:32:31;;;;;;;0.40;0.20;;;;;;;17.95;100.00;100818.31;5021981;22;21096;-52
2021/06/07 08:34:58;;;;;;;1.23;0.53;;;;;;;17.63;100.00;100814.53;4993474;28;20461;-52
2021/06/07 08:37:25;;;;;;;0.40;0.30;;;;;;;17.75;100.00;100815.78;4993597;28;20461;-52
2021/06/07 08:39:51;;;;;;;0.40;0.20;;;;;;;17.81;100.00;100818.13;4980059;28;20444;-52
2021/06/07 08:42:19;;;;;;;0.40;0.20;;;;;;;17.60;100.00;100825.44;4981302;28;20543;-52
2021/06/07 08:44:46;;;;;;;0.40;0.20;;;;;;;17.71;100.00;100825.81;4987199;28;20482;-52
2021/06/07 08:47:13;;;;;;;0.40;0.30;;;;;;;17.58;100.00;100826.47;4987413;28;20450;-53
2021/06/07 08:49:40;;;;;;;1.77;1.67;;;;;;;17.65;100.00;100819.81;4980378;28;20524;-53
2021/06/07 08:52:07;;;;;;;0.40;0.20;;;;;;;17.80;100.00;100820.91;4980194;28;20959;-53
2021/06/07 08:54:34;;;;;;;0.40;0.20;;;;;;;17.85;100.00;100826.94;4987211;28;20493;-52
2021/06/07 08:57:01;;;;;;;0.40;0.30;;;;;;;17.73;100.00;100832.00;4976356;28;20454;-53
2021/06/07 08:59:27;;;;;;;0.40;0.20;;;;;;;17.85;100.00;100824.25;4986557;28;20520;-53
2021/06/07 09:01:55;;;;;;;0.40;0.20;;;;;;;17.85;100.00;100827.81;4987061;28;20517;-53
2021/06/07 09:04:26;;;;;;;0.40;0.20;;;;;;;17.91;100.00;100822.13;4980720;28;21013;-53
2021/06/07 09:06:53;;;;;;;0.40;0.20;;;;;;;17.90;100.00;100825.75;4991981;28;20508;-53
2021/06/07 09:09:24;;;;;;;0.40;0.20;;;;;;;17.93;100.00;100824.72;4981583;28;20480;-53
2021/06/07 09:12:06;;;;;;;0.40;0.30;;;;;;;17.72;100.00;100826.69;4980375;28;20865;-53
2021/06/07 09:14:39;;;;;;;0.40;0.20;;;;;;;18.05;100.00;100816.03;4982409;28;20457;-53
2021/06/07 09:17:17;;;;;;;0.40;0.20;;;;;;;17.95;100.00;100818.31;4986557;28;20421;-53
2021/06/07 09:19:46;;;;;;;1.00;0.93;;;;;;;18.22;100.00;100817.84;4986319;28;20496;-53
2021/06/07 09:22:25;;;;;;;0.40;0.20;;;;;;;17.95;100.00;100815.63;4995906;28;20494;-53
2021/06/07 09:25:09;;;;;;;0.40;0.20;;;;;;;18.13;100.00;100813.84;4980199;28;20513;-53
2021/06/07 09:27:37;;;;;;;0.40;0.20;;;;;;;18.19;100.00;100809.94;4985192;28;20863;-53
2021/06/07 09:30:31;;;;;;;0.40;0.20;;;;;;;18.20;100.00;100812.56;5005962;28;20528;-53
2021/06/07 09:33:37;;;;;;;0.40;0.20;;;;;;;18.43;100.00;100814.06;4979462;28;20462;-52
2021/06/07 09:36:07;;;;;;;1.37;0.77;;;;;;;18.18;100.00;100821.66;4980520;28;20458;-53
2021/06/07 09:38:35;;;;;;;1.00;1.00;;;;;;;18.05;100.00;100822.28;4984746;28;20544;-53
2021/06/07 09:41:03;;;;;;;0.40;0.20;;;;;;;18.38;100.00;100824.22;4986145;28;20997;-53
2021/06/07 09:43:51;;;;;;;0.40;0.20;;;;;;;18.16;100.00;100828.94;4982026;28;20480;-53
2021/06/07 09:46:21;;;;;;;0.40;0.20;;;;;;;18.05;100.00;100827.66;4979523;28;20507;-53
2021/06/07 09:48:48;;;;;;;0.40;0.20;;;;;;;18.44;100.00;100823.00;4980583;28;20853;-53
2021/06/07 09:51:19;;;;;;;0.40;0.30;;;;;;;18.21;100.00;100830.44;4986342;28;20458;-53
2021/06/07 09:53:55;;;;;;;0.60;0.60;;;;;;;18.14;100.00;100829.03;4986324;28;20454;-53
2021/06/07 09:56:23;;;;;;;0.40;0.20;;;;;;;18.13;100.00;100823.72;4976556;28;20927;-53
2021/06/07 09:58:51;;;;;;;0.40;0.20;;;;;;;18.02;100.00;100826.97;4985868;28;20473;-53
2021/06/07 10:01:32;;;;;;;0.70;0.57;;;;;;;18.22;100.00;100837.56;4981644;28;20493;-53
2021/06/07 10:04:00;;;;;;;0.40;0.20;;;;;;;18.10;100.00;100826.59;4979164;28;20946;-53
2021/06/07 10:06:34;;;;;;;0.40;0.20;;;;;;;18.15;100.00;100833.47;4981780;28;20505;-53
2021/06/07 10:09:04;;;;;;;0.40;0.20;;;;;;;18.23;100.00;100827.69;4985847;28;20477;-53
2021/06/07 10:11:37;;;;;;;0.40;0.20;;;;;;;17.89;100.00;100842.84;4985500;28;20445;-53
2021/06/07 10:14:15;;;;;;;0.40;0.20;;;;;;;17.86;100.00;100828.69;4986122;28;20533;-53
2021/06/07 10:17:02;;;;;;;0.40;0.20;;;;;;;18.09;100.00;100833.75;4985468;28;20452;-52
2021/06/07 10:19:45;;;;;;;0.40;0.20;;;;;;;18.12;100.00;100841.69;4983350;28;20476;-53
2021/06/07 10:22:13;;;;;;;0.40;0.30;;;;;;;17.92;100.00;100841.81;4973072;28;20486;-53
2021/06/07 10:24:40;;;;;;;0.40;0.30;;;;;;;17.98;100.00;100830.78;4985639;28;20485;-52
2021/06/07 10:27:07;;;;;;;0.40;0.20;;;;;;;17.84;100.00;100834.16;4981916;28;20482;-53
2021/06/07 10:29:38;;;;;;;0.40;0.20;;;;;;;18.01;100.00;100836.00;4985837;28;20469;-53
2021/06/07 10:32:11;;;;;;;0.40;0.20;;;;;;;17.91;100.00;100830.19;4980833;28;20457;-53
2021/06/07 10:34:53;;;;;;;0.40;0.20;;;;;;;17.72;100.00;100842.81;4979500;28;20446;-53
2021/06/07 10:37:20;;;;;;;0.40;0.20;;;;;;;17.75;100.00;100834.59;4993889;28;20457;-52
2021/06/07 10:39:48;;;;;;;0.40;0.20;;;;;;;17.75;100.00;100837.28;4982569;28;20528;-52
2021/06/07 10:42:29;;;;;;;0.40;0.20;;;;;;;17.78;100.00;100837.13;4982416;28;21086;-53
2021/06/07 10:45:04;;;;;;;0.40;0.20;;;;;;;17.96;100.00;100830.84;4989638;28;20454;-52
2021/06/07 10:47:45;;;;;;;0.40;0.27;;;;;;;17.88;100.00;100841.13;4991168;28;20449;-52
2021/06/07 10:50:17;;;;;;;0.40;0.30;;;;;;;17.79;100.00;100838.00;4987048;28;20445;-52
2021/06/07 10:52:57;;;;;;;0.57;0.57;;;;;;;17.81;100.00;100831.59;4982442;28;20814;-52
2021/06/07 10:55:26;;;;;;;12.43;2.00;;;;;;;18.12;100.00;100816.63;4984074;28;20939;-52
2021/06/07 10:58:13;;;;;;;0.40;0.20;;;;;;;18.15;100.00;100827.22;4983585;28;20452;-52
2021/06/07 11:00:50;;;;;;;0.80;0.73;;;;;;;18.25;100.00;100829.34;4982618;28;21082;-53
2021/06/07 11:03:20;;;;;;;0.67;0.67;;;;;;;18.40;100.00;100833.06;4984640;28;20457;-53
2021/06/07 11:05:49;;;;;;;0.40;0.20;;;;;;;18.45;100.00;100825.63;4988901;28;20486;-52
2021/06/07 11:08:28;;;;;;;0.40;0.20;;;;;;;18.56;100.00;100825.94;4987634;28;20477;-53
2021/06/07 11:11:21;;;;;;;0.40;0.30;;;;;;;18.19;100.00;100832.34;4984326;28;20813;-53
2021/06/07 11:13:48;;;;;;;0.40;0.20;;;;;;;18.00;100.00;100832.44;4997921;28;20805;-52
2021/06/07 11:16:32;;;;;;;0.40;0.20;;;;;;;18.12;100.00;100832.75;4983382;28;20475;-52
2021/06/07 11:19:04;;;;;;;0.40;0.20;;;;;;;18.16;100.00;100823.56;4983843;28;20469;-52
2021/06/07 11:21:35;;;;;;;0.40;0.20;;;;;;;18.11;100.00;100831.88;4981915;28;20498;-53
2021/06/07 11:24:32;;;;;;;0.40;0.20;;;;;;;18.14;100.00;100828.16;4985835;28;20451;-52
2021/06/07 11:27:39;;;;;;;0.40;0.20;;;;;;;18.36;100.00;100828.78;4986409;28;20450;-52